DAOO

Es Senia Airport

Oran, Algeria
METAR DAOO 201500Z 24013KT 9999 FEW020 SCT023 18/11 Q1013
Observed Flight Rules
Feb-20 @ 15:00 UTC (2 hours ago) Visual Flight Rules
Wind Visibility Clouds
240° at 13 knots 10,000+ meters
  • Few at 2,000' AGL
  • Scattered at 2,300' AGL
Temperatures Readings
Current 18°C / 64°F
Dewpoint 11°C / 52°F
Humidity 64%
Altimeter 29.91" Hg
Pressure 1013 hPa
Elevation 90
METAR DAOO 201500Z 24013KT 9999 FEW020 SCT023 18/11 Q1013
Observed Flight Rules
Feb-20 @ 15:00 UTC
(2 hours ago)
VFR
Wind Visibility
240° at 13 knots 10,000+ meters
Clouds
  • Few at 2,000' AGL
  • Scattered at 2,300' AGL
Temperature Dewpoint
18°C / 64°F 11°C / 52°F
Humidity Altimeter Pressure
64% 29.91" Hg 1013 hPa